RFF0078 UUEM-UUDL
Flight info
| Callsign | RFF0078 |
|---|---|
| Flight time | 0h 48m |
| Altitude | 20000 |
| Route | DCT |
| Aircraft | SU27/M-SDGHITUY/LB2D1 |
Departure
| Time | 2026-04-24 16:13 |
|---|---|
| Airport | Migalovo Air Base (UUEM) |
Arrival
| Time | 2026-04-24 17:02 |
|---|---|
| Airport | Golden Ring Yaroslavl International Airport (UUDL) |
| Time | Latitude | Longitude | Altitude | Speed | Heading |
|---|---|---|---|---|---|
| 2026-04-24 16:08 | 56.82842 | 35.76188 | 454 ft | 0 kts | 345° |
| 2026-04-24 16:09 | 56.82843 | 35.76188 | 454 ft | 0 kts | 345° |
| 2026-04-24 16:10 | 56.82846 | 35.76169 | 456 ft | 7 kts | 262° |
| 2026-04-24 16:11 | 56.82763 | 35.76016 | 456 ft | 3 kts | 258° |
| 2026-04-24 16:11 | 56.82747 | 35.75894 | 455 ft | 17 kts | 255° |
| 2026-04-24 16:11 | 56.82715 | 35.75676 | 457 ft | 17 kts | 255° |
| 2026-04-24 16:12 | 56.82660 | 35.75328 | 457 ft | 9 kts | 234° |
| 2026-04-24 16:12 | 56.82610 | 35.75303 | 457 ft | 8 kts | 174° |
| 2026-04-24 16:12 | 56.82438 | 35.75345 | 455 ft | 10 kts | 167° |
| 2026-04-24 16:13 | 56.82424 | 35.75384 | 455 ft | 0 kts | 76° |
| 2026-04-24 16:13 | 56.83712 | 35.76048 | 1278 ft | 313 kts | 279° |
| 2026-04-24 16:14 | 56.80997 | 35.74909 | 2672 ft | 245 kts | 104° |
| 2026-04-24 16:14 | 56.81233 | 35.78122 | 1718 ft | 303 kts | 72° |
| 2026-04-24 16:14 | 56.82493 | 35.86362 | 1692 ft | 366 kts | 66° |
| 2026-04-24 16:15 | 56.83461 | 35.88731 | 1763 ft | 348 kts | 19° |
| 2026-04-24 16:15 | 56.83483 | 35.83144 | 984 ft | 367 kts | 263° |
| 2026-04-24 16:16 | 56.80726 | 35.70292 | 2159 ft | 531 kts | 204° |
| 2026-04-24 16:16 | 56.78193 | 35.72296 | 3346 ft | 391 kts | 105° |
| 2026-04-24 16:17 | 56.80457 | 35.82446 | 2830 ft | 236 kts | 29° |
| 2026-04-24 16:17 | 56.82312 | 35.82780 | 1742 ft | 263 kts | 335° |
| 2026-04-24 16:18 | 56.82979 | 35.81595 | 1834 ft | 240 kts | 295° |
| 2026-04-24 16:18 | 56.82112 | 35.73604 | 823 ft | 453 kts | 247° |
| 2026-04-24 16:18 | 56.80033 | 35.72697 | 2148 ft | 334 kts | 116° |
| 2026-04-24 16:19 | 56.81356 | 35.78970 | 1372 ft | 252 kts | 43° |
| 2026-04-24 16:19 | 56.82631 | 35.79627 | 1308 ft | 257 kts | 298° |
| 2026-04-24 16:20 | 56.82557 | 35.70617 | 1674 ft | 410 kts | 266° |
| 2026-04-24 16:20 | 56.81322 | 35.71119 | 1901 ft | 229 kts | 327° |
| 2026-04-24 16:20 | 56.82454 | 35.69352 | 1493 ft | 212 kts | 355° |
| 2026-04-24 16:21 | 56.82661 | 35.75327 | 613 ft | 281 kts | 83° |
| 2026-04-24 16:21 | 56.83647 | 35.75575 | 1434 ft | 226 kts | 247° |
| 2026-04-24 16:21 | 56.82104 | 35.74045 | 561 ft | 305 kts | 194° |
| 2026-04-24 16:22 | 56.81559 | 35.75592 | 1825 ft | 227 kts | 355° |
| 2026-04-24 16:22 | 56.81895 | 35.72890 | 1592 ft | 198 kts | 74° |
| 2026-04-24 16:22 | 56.82381 | 35.75370 | 514 ft | 239 kts | 71° |
| 2026-04-24 16:23 | 56.83027 | 35.79535 | 1954 ft | 334 kts | 74° |
| 2026-04-24 16:23 | 56.83239 | 35.82070 | 5121 ft | 169 kts | 124° |
| 2026-04-24 16:23 | 56.81799 | 35.82039 | 1625 ft | 284 kts | 246° |
| 2026-04-24 16:24 | 56.83724 | 35.85182 | 2404 ft | 478 kts | 62° |
| 2026-04-24 16:24 | 56.84640 | 35.88991 | 2872 ft | 419 kts | 65° |
| 2026-04-24 16:25 | 56.85480 | 35.92861 | 3341 ft | 420 kts | 70° |
| 2026-04-24 16:25 | 56.86474 | 35.98714 | 3703 ft | 495 kts | 72° |
| 2026-04-24 16:25 | 56.87602 | 36.05895 | 4683 ft | 674 kts | 68° |
| 2026-04-24 16:26 | 56.90656 | 36.20479 | 9351 ft | 300 kts | 66° |
| 2026-04-24 16:26 | 56.90459 | 36.20475 | 15474 ft | 172 kts | 236° |
| 2026-04-24 16:26 | 56.90953 | 36.25496 | 7860 ft | 467 kts | 69° |
| 2026-04-24 16:27 | 56.92095 | 36.31763 | 7125 ft | 535 kts | 69° |
| 2026-04-24 16:27 | 56.93383 | 36.38855 | 8147 ft | 556 kts | 71° |
| 2026-04-24 16:27 | 56.94420 | 36.44844 | 8862 ft | 440 kts | 67° |
| 2026-04-24 16:27 | 56.95081 | 36.48881 | 8510 ft | 390 kts | 85° |
| 2026-04-24 16:28 | 56.95145 | 36.53588 | 8239 ft | 353 kts | 100° |
| 2026-04-24 16:28 | 56.95047 | 36.57623 | 8449 ft | 297 kts | 83° |
| 2026-04-24 16:28 | 56.97266 | 36.64027 | 10376 ft | 372 kts | 64° |
| 2026-04-24 16:29 | 56.98269 | 36.68559 | 11388 ft | 435 kts | 63° |
| 2026-04-24 16:29 | 56.99254 | 36.74282 | 12008 ft | 448 kts | 73° |
| 2026-04-24 16:29 | 57.01438 | 36.87466 | 13201 ft | 537 kts | 75° |
| 2026-04-24 16:30 | 57.02999 | 36.98870 | 15025 ft | 420 kts | 84° |
| 2026-04-24 16:30 | 57.03423 | 37.03717 | 13547 ft | 400 kts | 79° |
| 2026-04-24 16:30 | 57.04238 | 37.07593 | 14216 ft | 318 kts | 29° |
| 2026-04-24 16:31 | 57.05758 | 37.11207 | 15373 ft | 429 kts | 61° |
| 2026-04-24 16:31 | 57.07060 | 37.16810 | 15872 ft | 476 kts | 67° |
| 2026-04-24 16:31 | 57.08181 | 37.22159 | 16399 ft | 443 kts | 68° |
| 2026-04-24 16:31 | 57.09241 | 37.27362 | 16875 ft | 434 kts | 68° |
| 2026-04-24 16:32 | 57.09974 | 37.30976 | 17186 ft | 474 kts | 68° |
| 2026-04-24 16:32 | 57.11375 | 37.37935 | 17775 ft | 392 kts | 69° |
| 2026-04-24 16:32 | 57.12531 | 37.43287 | 17919 ft | 522 kts | 73° |
| 2026-04-24 16:32 | 57.13057 | 37.48918 | 20929 ft | 328 kts | 75° |
| 2026-04-24 16:33 | 57.13580 | 37.52032 | 22182 ft | 237 kts | 46° |
| 2026-04-24 16:33 | 57.14871 | 37.55922 | 19685 ft | 469 kts | 65° |
| 2026-04-24 16:33 | 57.16284 | 37.62621 | 20093 ft | 646 kts | 66° |
| 2026-04-24 16:33 | 57.18582 | 37.69410 | 19929 ft | 576 kts | 50° |
| 2026-04-24 16:34 | 57.20925 | 37.74710 | 20163 ft | 482 kts | 50° |
| 2026-04-24 16:34 | 57.20886 | 37.79366 | 22028 ft | 368 kts | 132° |
| 2026-04-24 16:34 | 57.19949 | 37.83207 | 21373 ft | 347 kts | 82° |
| 2026-04-24 16:34 | 57.20233 | 37.86488 | 23308 ft | 227 kts | 103° |
| 2026-04-24 16:35 | 57.20977 | 37.89306 | 21995 ft | 296 kts | 50° |
| 2026-04-24 16:35 | 57.22323 | 37.93168 | 22629 ft | 421 kts | 62° |
| 2026-04-24 16:35 | 57.23742 | 37.98841 | 23472 ft | 566 kts | 70° |
| 2026-04-24 16:35 | 57.25201 | 38.06186 | 24058 ft | 599 kts | 71° |
| 2026-04-24 16:36 | 57.26188 | 38.11799 | 29169 ft | 322 kts | 73° |
| 2026-04-24 16:36 | 57.26623 | 38.15925 | 30829 ft | 272 kts | 75° |
| 2026-04-24 16:36 | 57.27175 | 38.19386 | 29079 ft | 316 kts | 47° |
| 2026-04-24 16:36 | 57.28729 | 38.23253 | 25378 ft | 425 kts | 68° |
| 2026-04-24 16:37 | 57.29732 | 38.28319 | 26163 ft | 410 kts | 71° |
| 2026-04-24 16:37 | 57.31238 | 38.32532 | 27418 ft | 387 kts | 45° |
| 2026-04-24 16:37 | 57.31874 | 38.35231 | 28087 ft | 331 kts | 111° |
| 2026-04-24 16:37 | 57.32255 | 38.40857 | 27023 ft | 366 kts | 63° |
| 2026-04-24 16:38 | 57.33337 | 38.45524 | 27510 ft | 421 kts | 68° |
| 2026-04-24 16:38 | 57.34015 | 38.50578 | 28127 ft | 377 kts | 77° |
| 2026-04-24 16:38 | 57.34291 | 38.55380 | 24194 ft | 448 kts | 84° |
| 2026-04-24 16:38 | 57.35287 | 38.59253 | 27622 ft | 238 kts | 45° |
| 2026-04-24 16:39 | 57.36469 | 38.62188 | 28657 ft | 321 kts | 79° |
| 2026-04-24 16:39 | 57.37248 | 38.66383 | 29207 ft | 375 kts | 67° |
| 2026-04-24 16:39 | 57.38191 | 38.71238 | 29684 ft | 435 kts | 68° |
| 2026-04-24 16:39 | 57.39320 | 38.76842 | 29877 ft | 472 kts | 71° |
| 2026-04-24 16:40 | 57.40071 | 38.82031 | 29788 ft | 345 kts | 71° |
| 2026-04-24 16:40 | 57.40478 | 38.84173 | 18102 ft | 180 kts | 286° |
| 2026-04-24 16:40 | 57.41217 | 38.78330 | 7984 ft | 596 kts | 288° |
| 2026-04-24 16:40 | 57.43826 | 38.73558 | 6285 ft | 497 kts | 1° |
| 2026-04-24 16:41 | 57.45845 | 38.77650 | 8760 ft | 493 kts | 86° |
| 2026-04-24 16:41 | 57.45757 | 38.84238 | 14587 ft | 526 kts | 96° |
| 2026-04-24 16:41 | 57.45325 | 38.91030 | 21108 ft | 529 kts | 93° |
| 2026-04-24 16:41 | 57.45457 | 38.97927 | 27369 ft | 559 kts | 85° |
| 2026-04-24 16:42 | 57.45720 | 39.05380 | 31350 ft | 597 kts | 84° |
| 2026-04-24 16:42 | 57.46215 | 39.13098 | 32678 ft | 581 kts | 71° |
| 2026-04-24 16:42 | 57.47580 | 39.20043 | 29686 ft | 579 kts | 66° |
| 2026-04-24 16:42 | 57.48999 | 39.26933 | 27199 ft | 567 kts | 75° |
| 2026-04-24 16:43 | 57.48798 | 39.33773 | 24290 ft | 541 kts | 126° |
| 2026-04-24 16:43 | 57.47171 | 39.39116 | 27087 ft | 415 kts | 124° |
| 2026-04-24 16:43 | 57.45573 | 39.43185 | 28137 ft | 364 kts | 135° |
| 2026-04-24 16:43 | 57.43559 | 39.43089 | 24309 ft | 341 kts | 195° |
| 2026-04-24 16:44 | 57.41430 | 39.44618 | 21754 ft | 395 kts | 91° |
| 2026-04-24 16:44 | 57.41624 | 39.49776 | 18721 ft | 451 kts | 114° |
| 2026-04-24 16:44 | 57.39626 | 39.52735 | 18048 ft | 367 kts | 214° |
| 2026-04-24 16:44 | 57.37842 | 39.49920 | 18201 ft | 317 kts | 220° |
| 2026-04-24 16:45 | 57.36278 | 39.46952 | 16757 ft | 329 kts | 230° |
| 2026-04-24 16:45 | 57.34947 | 39.43567 | 15920 ft | 321 kts | 237° |
| 2026-04-24 16:45 | 57.33857 | 39.40454 | 16611 ft | 265 kts | 237° |
| 2026-04-24 16:45 | 57.32771 | 39.37652 | 15792 ft | 270 kts | 232° |
| 2026-04-24 16:46 | 57.31686 | 39.34852 | 15225 ft | 264 kts | 234° |
| 2026-04-24 16:46 | 57.30800 | 39.31861 | 14451 ft | 268 kts | 259° |
| 2026-04-24 16:46 | 57.30996 | 39.28476 | 14046 ft | 276 kts | 295° |
| 2026-04-24 16:46 | 57.32170 | 39.25722 | 13480 ft | 271 kts | 320° |
| 2026-04-24 16:47 | 57.33647 | 39.23621 | 12915 ft | 281 kts | 324° |
| 2026-04-24 16:47 | 57.35241 | 39.21457 | 12393 ft | 278 kts | 323° |
| 2026-04-24 16:47 | 57.36595 | 39.21650 | 11217 ft | 272 kts | 130° |
| 2026-04-24 16:47 | 57.35207 | 39.21027 | 10406 ft | 316 kts | 290° |
| 2026-04-24 16:48 | 57.36566 | 39.18519 | 10327 ft | 314 kts | 334° |
| 2026-04-24 16:48 | 57.38751 | 39.16722 | 10423 ft | 337 kts | 346° |
| 2026-04-24 16:48 | 57.40940 | 39.16734 | 10310 ft | 302 kts | 20° |
| 2026-04-24 16:48 | 57.42625 | 39.18841 | 9650 ft | 295 kts | 50° |
| 2026-04-24 16:49 | 57.43583 | 39.22208 | 8795 ft | 296 kts | 68° |
| 2026-04-24 16:49 | 57.44294 | 39.26226 | 8278 ft | 397 kts | 72° |
| 2026-04-24 16:49 | 57.45039 | 39.31258 | 8198 ft | 386 kts | 71° |
| 2026-04-24 16:49 | 57.45778 | 39.35815 | 8004 ft | 353 kts | 71° |
| 2026-04-24 16:50 | 57.46239 | 39.38612 | 7896 ft | 332 kts | 71° |
| 2026-04-24 16:50 | 57.47026 | 39.43678 | 8567 ft | 196 kts | 72° |
| 2026-04-24 16:50 | 57.47321 | 39.45842 | 9533 ft | 172 kts | 71° |
| 2026-04-24 16:50 | 57.47565 | 39.47650 | 9420 ft | 132 kts | 84° |
| 2026-04-24 16:51 | 57.47515 | 39.49707 | 7367 ft | 210 kts | 99° |
| 2026-04-24 16:51 | 57.47367 | 39.52435 | 7285 ft | 210 kts | 89° |
| 2026-04-24 16:51 | 57.47267 | 39.55366 | 7070 ft | 237 kts | 89° |
| 2026-04-24 16:51 | 57.47166 | 39.58404 | 7022 ft | 234 kts | 90° |
| 2026-04-24 16:52 | 57.47059 | 39.61331 | 6936 ft | 230 kts | 90° |
| 2026-04-24 16:52 | 57.46922 | 39.64901 | 7089 ft | 349 kts | 91° |
| 2026-04-24 16:52 | 57.46775 | 39.70028 | 7105 ft | 393 kts | 91° |
| 2026-04-24 16:52 | 57.46452 | 39.75011 | 6591 ft | 429 kts | 126° |
| 2026-04-24 16:53 | 57.43582 | 39.75371 | 1283 ft | 490 kts | 196° |
| 2026-04-24 16:53 | 57.41480 | 39.77507 | 2236 ft | 318 kts | 70° |
| 2026-04-24 16:53 | 57.42789 | 39.79899 | 2384 ft | 248 kts | 34° |
| 2026-04-24 16:53 | 57.44156 | 39.81347 | 2727 ft | 206 kts | 19° |
| 2026-04-24 16:54 | 57.45727 | 39.83229 | 2639 ft | 363 kts | 38° |
| 2026-04-24 16:54 | 57.47662 | 39.87166 | 2668 ft | 443 kts | 49° |
| 2026-04-24 16:54 | 57.48859 | 39.90074 | 1946 ft | 415 kts | 53° |
| 2026-04-24 16:54 | 57.50417 | 39.94395 | 1455 ft | 442 kts | 61° |
| 2026-04-24 16:55 | 57.51710 | 39.99527 | 963 ft | 413 kts | 62° |
| 2026-04-24 16:55 | 57.52918 | 40.04048 | 693 ft | 370 kts | 64° |
| 2026-04-24 16:55 | 57.53973 | 40.08111 | 571 ft | 335 kts | 62° |
| 2026-04-24 16:55 | 57.54991 | 40.11795 | 380 ft | 305 kts | 56° |
| 2026-04-24 16:56 | 57.56403 | 40.10800 | 1659 ft | 389 kts | 266° |
| 2026-04-24 16:56 | 57.55278 | 40.05901 | 2400 ft | 396 kts | 247° |
| 2026-04-24 16:56 | 57.54120 | 40.01606 | 2603 ft | 348 kts | 246° |
| 2026-04-24 16:56 | 57.52759 | 39.98439 | 2860 ft | 299 kts | 166° |
| 2026-04-24 16:57 | 57.52117 | 40.00715 | 2455 ft | 210 kts | 66° |
| 2026-04-24 16:57 | 57.52618 | 40.03261 | 1685 ft | 211 kts | 62° |
| 2026-04-24 16:57 | 57.53266 | 40.05624 | 1299 ft | 196 kts | 60° |
| 2026-04-24 16:57 | 57.53883 | 40.07840 | 987 ft | 201 kts | 58° |
| 2026-04-24 16:58 | 57.54523 | 40.09998 | 707 ft | 182 kts | 62° |
| 2026-04-24 16:58 | 57.55033 | 40.12000 | 490 ft | 161 kts | 62° |
| 2026-04-24 16:58 | 57.55534 | 40.13833 | 305 ft | 154 kts | 62° |
| 2026-04-24 16:58 | 57.56174 | 40.15188 | 770 ft | 162 kts | 301° |
| 2026-04-24 16:59 | 57.55965 | 40.12869 | 1776 ft | 297 kts | 248° |
| 2026-04-24 16:59 | 57.54784 | 40.08149 | 2373 ft | 450 kts | 251° |
| 2026-04-24 16:59 | 57.52027 | 40.02592 | 2605 ft | 286 kts | 96° |
| 2026-04-24 17:00 | 57.52883 | 40.04928 | 1599 ft | 237 kts | 32° |
| 2026-04-24 17:00 | 57.54518 | 40.09949 | 649 ft | 212 kts | 62° |
| 2026-04-24 17:00 | 57.55132 | 40.12307 | 439 ft | 192 kts | 63° |
| 2026-04-24 17:01 | 57.56007 | 40.15516 | 305 ft | 65 kts | 60° |
| 2026-04-24 17:01 | 57.56201 | 40.16242 | 303 ft | 58 kts | 65° |
| 2026-04-24 17:02 | 57.56437 | 40.17124 | 305 ft | 43 kts | 64° |
| 2026-04-24 17:02 | 57.56541 | 40.17526 | 301 ft | 17 kts | 81° |
| 2026-04-24 17:02 | 57.56473 | 40.17660 | 300 ft | 14 kts | 176° |
| 2026-04-24 17:02 | 57.56408 | 40.17590 | 300 ft | 10 kts | 240° |
| 2026-04-24 17:03 | 57.56354 | 40.17512 | 303 ft | 3 kts | 157° |
| 2026-04-24 17:03 | 57.56345 | 40.17521 | 303 ft | 1 kts | 155° |
| 2026-04-24 17:03 | 57.56343 | 40.17522 | 303 ft | 0 kts | 156° |